createdAt,value
2019-03-29T00:01:18.084Z,14.47
2019-03-29T00:03:46.382Z,17.03
2019-03-29T00:06:14.644Z,15.80
2019-03-29T00:08:42.887Z,17.13
2019-03-29T00:11:11.234Z,17.60
2019-03-29T00:13:39.478Z,15.33
2019-03-29T00:16:07.714Z,16.47
2019-03-29T00:18:36.335Z,16.63
2019-03-29T00:21:04.708Z,17.70
2019-03-29T00:23:33.058Z,17.57
2019-03-29T00:26:01.369Z,14.53
2019-03-29T00:28:29.637Z,17.23
2019-03-29T00:30:57.935Z,14.83
2019-03-29T00:33:26.273Z,15.37
2019-03-29T00:35:54.605Z,15.73
2019-03-29T00:38:22.998Z,16.10
2019-03-29T00:40:51.285Z,13.83
2019-03-29T00:43:19.598Z,16.33
2019-03-29T00:45:47.945Z,15.53
2019-03-29T00:48:16.161Z,13.80
2019-03-29T00:50:44.516Z,16.23
2019-03-29T00:53:12.817Z,18.10
2019-03-29T00:55:41.153Z,15.07
2019-03-29T00:58:09.467Z,15.83
2019-03-29T01:00:37.797Z,15.70
2019-03-29T01:03:06.098Z,19.80
2019-03-29T01:05:34.419Z,17.03
2019-03-29T01:08:08.024Z,17.17
2019-03-29T01:10:32.705Z,14.83
2019-03-29T01:13:01.052Z,17.50
2019-03-29T01:15:29.289Z,18.33
2019-03-29T01:17:57.621Z,18.50
2019-03-29T01:20:25.925Z,17.47
2019-03-29T01:22:54.551Z,16.47
2019-03-29T01:25:22.945Z,18.43
2019-03-29T01:27:51.817Z,17.43
2019-03-29T01:30:20.061Z,18.50
2019-03-29T01:32:48.331Z,16.87
2019-03-29T01:35:16.553Z,16.03
2019-03-29T01:37:45.374Z,16.53
2019-03-29T01:40:14.726Z,18.37
2019-03-29T01:42:43.075Z,16.13
2019-03-29T01:45:12.303Z,18.40
2019-03-29T01:47:40.560Z,19.13
2019-03-29T01:50:08.864Z,17.77
2019-03-29T01:52:37.196Z,16.87
2019-03-29T01:55:06.173Z,18.30
2019-03-29T01:57:34.477Z,16.30
2019-03-29T02:00:02.814Z,18.47
2019-03-29T02:02:31.045Z,17.97
2019-03-29T02:04:59.358Z,18.20
2019-03-29T02:07:27.725Z,19.17
2019-03-29T02:09:56.841Z,19.40
2019-03-29T02:12:25.141Z,18.00
2019-03-29T02:14:53.389Z,16.33
2019-03-29T02:17:21.956Z,21.10
2019-03-29T02:19:50.356Z,22.53
2019-03-29T02:22:18.657Z,19.00
2019-03-29T02:24:47.004Z,22.17
2019-03-29T02:27:15.308Z,22.20
2019-03-29T02:29:43.557Z,26.33
2019-03-29T02:32:11.938Z,22.50
2019-03-29T02:34:40.136Z,20.30
2019-03-29T02:37:08.415Z,21.47
2019-03-29T02:39:36.638Z,22.23
2019-03-29T02:42:04.908Z,22.93
2019-03-29T02:44:34.851Z,21.60
2019-03-29T02:47:03.130Z,27.70
2019-03-29T02:49:31.429Z,27.83
2019-03-29T02:51:59.764Z,25.43
2019-03-29T02:54:28.070Z,25.70
2019-03-29T02:56:56.417Z,27.97
2019-03-29T02:59:24.644Z,28.03
2019-03-29T03:01:52.957Z,25.83
2019-03-29T03:04:21.225Z,27.33
2019-03-29T03:06:49.541Z,29.23
2019-03-29T03:09:17.797Z,25.67
2019-03-29T03:11:46.038Z,28.17
2019-03-29T03:14:14.385Z,27.20
2019-03-29T03:16:42.690Z,28.40
2019-03-29T03:19:10.958Z,24.60
2019-03-29T03:21:39.194Z,27.27
2019-03-29T03:24:07.536Z,30.40
2019-03-29T03:26:35.885Z,32.97
2019-03-29T03:29:04.195Z,36.40
2019-03-29T03:31:32.459Z,35.37
2019-03-29T03:34:00.707Z,34.27
2019-03-29T03:36:29.048Z,30.33
2019-03-29T03:38:57.272Z,33.20
2019-03-29T03:41:25.575Z,35.10
2019-03-29T03:43:54.045Z,31.80
2019-03-29T03:46:22.242Z,31.97
2019-03-29T03:48:50.519Z,33.00
2019-03-29T03:51:18.832Z,33.17
2019-03-29T03:53:47.222Z,35.13
2019-03-29T03:56:16.049Z,30.43
2019-03-29T03:58:45.060Z,33.17
2019-03-29T04:01:13.417Z,33.83
2019-03-29T04:03:41.658Z,32.90
2019-03-29T04:06:09.988Z,37.67
2019-03-29T04:08:38.240Z,34.27
2019-03-29T04:11:06.541Z,35.03
2019-03-29T04:13:34.882Z,33.83
2019-03-29T04:16:03.183Z,34.10
2019-03-29T04:18:31.536Z,32.60
2019-03-29T04:20:59.849Z,36.90
2019-03-29T04:23:28.121Z,31.97
2019-03-29T04:25:56.340Z,33.23
2019-03-29T04:28:24.679Z,32.70
2019-03-29T04:30:52.912Z,32.10
2019-03-29T04:33:21.137Z,31.23
2019-03-29T04:35:49.483Z,32.83
2019-03-29T04:38:17.738Z,30.43
2019-03-29T04:40:46.198Z,29.27
2019-03-29T04:43:14.541Z,28.77
2019-03-29T04:45:42.838Z,37.27
2019-03-29T04:48:11.189Z,31.40
2019-03-29T04:50:39.418Z,33.47
2019-03-29T04:53:07.718Z,32.33
2019-03-29T04:55:36.070Z,35.53
2019-03-29T04:58:08.025Z,32.47
2019-03-29T05:00:39.009Z,30.50
2019-03-29T05:03:07.311Z,32.57
2019-03-29T05:05:35.575Z,31.67
2019-03-29T05:08:03.873Z,30.67
2019-03-29T05:10:32.187Z,34.43
2019-03-29T05:13:00.454Z,33.17
2019-03-29T05:15:28.690Z,30.73
2019-03-29T05:17:57.036Z,30.33
2019-03-29T05:20:25.314Z,31.10
2019-03-29T05:22:53.622Z,33.70
2019-03-29T05:25:22.037Z,32.10
2019-03-29T05:27:50.351Z,35.03
2019-03-29T05:30:18.698Z,31.57
2019-03-29T05:32:47.082Z,33.90
2019-03-29T05:35:15.380Z,32.67
2019-03-29T05:37:43.725Z,32.47
2019-03-29T05:40:12.551Z,33.47
2019-03-29T05:42:40.892Z,33.93
2019-03-29T05:45:09.294Z,31.27
2019-03-29T05:47:37.645Z,31.47
2019-03-29T05:50:09.380Z,33.30
2019-03-29T05:52:37.716Z,32.20
2019-03-29T05:55:06.826Z,34.13
2019-03-29T05:57:35.164Z,33.20
2019-03-29T06:00:05.070Z,34.07
2019-03-29T06:02:33.354Z,39.67
2019-03-29T06:05:01.657Z,31.93
2019-03-29T06:07:30.000Z,31.07
2019-03-29T06:09:58.336Z,30.30
2019-03-29T06:12:26.634Z,31.93
2019-03-29T06:14:54.933Z,30.63
2019-03-29T06:17:23.288Z,32.67
2019-03-29T06:19:51.537Z,32.47
2019-03-29T06:22:19.885Z,33.47
2019-03-29T06:24:48.230Z,33.57
2019-03-29T06:27:16.538Z,31.07
2019-03-29T06:29:44.877Z,33.13
2019-03-29T06:32:13.185Z,32.10
2019-03-29T06:34:41.524Z,31.50
2019-03-29T06:37:13.301Z,32.63
2019-03-29T06:39:41.629Z,31.23
2019-03-29T06:42:09.939Z,33.20
2019-03-29T06:44:38.192Z,30.83
2019-03-29T06:47:06.432Z,31.80
2019-03-29T06:49:34.693Z,35.00
2019-03-29T06:52:02.994Z,36.30
2019-03-29T06:54:31.334Z,35.63
2019-03-29T06:56:59.653Z,28.47
2019-03-29T06:59:27.989Z,27.93
2019-03-29T07:01:56.218Z,29.83
2019-03-29T07:04:24.549Z,28.27
2019-03-29T07:06:52.785Z,26.33
2019-03-29T07:09:21.117Z,25.77
2019-03-29T07:11:49.418Z,26.53
2019-03-29T07:14:17.746Z,30.90
2019-03-29T07:16:46.057Z,30.80
2019-03-29T07:19:14.393Z,24.33
2019-03-29T07:21:42.634Z,24.17
2019-03-29T07:24:10.865Z,25.50
2019-03-29T07:26:39.137Z,27.33
2019-03-29T07:29:07.392Z,26.63
2019-03-29T07:31:35.831Z,26.97
2019-03-29T07:34:04.132Z,23.53
2019-03-29T07:36:32.393Z,27.63
2019-03-29T07:39:00.620Z,24.03
2019-03-29T07:41:32.249Z,25.17
2019-03-29T07:43:58.839Z,26.63
2019-03-29T07:46:27.237Z,24.53
2019-03-29T07:48:55.483Z,21.70
2019-03-29T07:51:23.737Z,22.20
2019-03-29T07:53:51.974Z,23.63
2019-03-29T07:56:21.282Z,24.30
2019-03-29T07:58:49.518Z,24.07
2019-03-29T08:01:17.745Z,23.37
2019-03-29T08:03:46.009Z,22.30
2019-03-29T08:06:14.309Z,23.63
2019-03-29T08:08:42.642Z,20.00
2019-03-29T08:11:10.882Z,20.30
2019-03-29T08:13:39.210Z,19.03
2019-03-29T08:16:07.515Z,21.33
2019-03-29T08:18:35.807Z,19.63
2019-03-29T08:21:04.140Z,16.33
2019-03-29T08:23:32.389Z,19.47
2019-03-29T08:26:00.684Z,17.90
2019-03-29T08:28:29.078Z,14.60
2019-03-29T08:30:57.261Z,9.20
2019-03-29T08:33:25.520Z,10.30
2019-03-29T08:35:53.817Z,12.33
2019-03-29T08:38:22.388Z,9.00
2019-03-29T08:40:51.220Z,6.53
2019-03-29T08:43:19.498Z,7.63
2019-03-29T08:45:47.770Z,7.50
2019-03-29T08:48:16.005Z,9.67
2019-03-29T08:50:44.345Z,8.90
2019-03-29T08:53:12.663Z,9.60
2019-03-29T08:55:45.963Z,8.53
2019-03-29T08:58:11.464Z,9.50
2019-03-29T09:00:39.687Z,10.30
2019-03-29T09:03:08.187Z,9.67
2019-03-29T09:05:39.145Z,9.27
2019-03-29T09:08:06.465Z,10.47
2019-03-29T09:10:34.854Z,9.63
2019-03-29T09:13:04.577Z,8.87
2019-03-29T09:15:33.339Z,9.30
2019-03-29T09:18:01.760Z,9.03
2019-03-29T09:20:30.135Z,10.90
2019-03-29T09:22:58.502Z,8.77
2019-03-29T09:25:26.910Z,6.93
2019-03-29T09:27:55.314Z,7.53
2019-03-29T09:30:23.661Z,6.70
2019-03-29T09:32:51.967Z,6.83
2019-03-29T09:35:20.913Z,8.83
2019-03-29T09:37:49.353Z,9.37
2019-03-29T09:40:17.743Z,9.47
2019-03-29T09:42:46.065Z,10.07
2019-03-29T09:45:14.363Z,8.83
2019-03-29T09:47:42.629Z,8.53
2019-03-29T09:50:12.395Z,9.93
2019-03-29T09:52:42.910Z,9.77
2019-03-29T09:55:11.374Z,8.03
2019-03-29T09:57:39.570Z,10.10
2019-03-29T10:00:19.038Z,7.87
2019-03-29T10:02:38.457Z,7.40
2019-03-29T10:05:06.927Z,10.47
2019-03-29T10:07:35.568Z,7.77
2019-03-29T10:10:04.996Z,7.87
2019-03-29T10:12:43.129Z,8.77
2019-03-29T10:15:03.839Z,8.03
2019-03-29T10:17:32.266Z,7.57
2019-03-29T10:20:00.497Z,8.67
2019-03-29T10:22:28.829Z,7.73
2019-03-29T10:24:57.138Z,7.33
2019-03-29T10:27:25.393Z,8.00
2019-03-29T10:29:53.633Z,7.30
2019-03-29T10:32:21.872Z,8.23
2019-03-29T10:34:50.205Z,8.40
2019-03-29T10:37:18.436Z,8.87
2019-03-29T10:39:46.769Z,7.73
2019-03-29T10:42:15.030Z,10.13
2019-03-29T10:44:43.364Z,11.63
2019-03-29T10:47:11.581Z,8.23
2019-03-29T10:49:39.912Z,8.60
2019-03-29T10:52:08.206Z,8.40
2019-03-29T10:54:36.535Z,9.70
2019-03-29T10:57:04.789Z,7.50
2019-03-29T10:59:33.094Z,9.17
2019-03-29T11:02:01.338Z,7.33
2019-03-29T11:04:31.898Z,7.60
2019-03-29T11:06:59.532Z,6.90
2019-03-29T11:09:28.706Z,7.37
2019-03-29T11:11:57.034Z,8.77
2019-03-29T11:14:25.257Z,8.07
2019-03-29T11:16:53.558Z,7.40
2019-03-29T11:19:21.811Z,11.10
2019-03-29T11:21:50.105Z,7.50
2019-03-29T11:24:18.441Z,9.30
2019-03-29T11:26:46.665Z,8.83
2019-03-29T11:29:14.988Z,8.43
2019-03-29T11:31:43.350Z,7.70
2019-03-29T11:34:11.694Z,8.50
2019-03-29T11:36:39.966Z,7.80
2019-03-29T11:39:08.996Z,9.53
2019-03-29T11:41:37.289Z,9.10
2019-03-29T11:44:05.758Z,8.13
2019-03-29T11:46:34.115Z,12.93
2019-03-29T11:49:02.372Z,8.57
2019-03-29T11:51:30.705Z,10.40
2019-03-29T11:53:58.922Z,8.37
2019-03-29T11:56:27.216Z,8.27
2019-03-29T11:58:55.553Z,9.63
2019-03-29T12:01:24.311Z,8.57
2019-03-29T12:03:52.723Z,8.33
2019-03-29T12:06:20.995Z,10.80
2019-03-29T12:08:49.289Z,8.87
2019-03-29T12:11:17.587Z,9.13
2019-03-29T12:13:46.137Z,10.27
2019-03-29T12:16:15.232Z,9.77
2019-03-29T12:18:45.739Z,9.20
2019-03-29T12:21:14.892Z,9.17
2019-03-29T12:23:43.172Z,9.87
2019-03-29T12:26:12.505Z,8.87
2019-03-29T12:28:42.749Z,10.00
2019-03-29T12:31:11.065Z,9.63
2019-03-29T12:33:39.338Z,9.23
2019-03-29T12:36:07.566Z,11.70
2019-03-29T12:38:36.032Z,13.47
2019-03-29T12:41:04.276Z,12.27
2019-03-29T12:43:32.572Z,13.60
2019-03-29T12:46:01.404Z,10.43
2019-03-29T12:48:29.636Z,10.20
2019-03-29T12:50:57.972Z,8.50
2019-03-29T12:53:26.199Z,11.67
2019-03-29T12:55:54.449Z,10.23
2019-03-29T12:58:22.746Z,10.20
2019-03-29T13:00:51.068Z,9.90
2019-03-29T13:03:19.377Z,10.43
2019-03-29T13:05:47.835Z,12.20
2019-03-29T13:08:16.135Z,10.73
2019-03-29T13:10:44.452Z,9.93
2019-03-29T13:13:12.674Z,10.07
2019-03-29T13:15:40.929Z,10.07
2019-03-29T13:18:09.221Z,13.80
2019-03-29T13:20:37.446Z,10.77
2019-03-29T13:23:05.788Z,11.07
2019-03-29T13:25:34.092Z,11.13
2019-03-29T13:28:02.413Z,9.77
2019-03-29T13:30:30.922Z,10.47
2019-03-29T13:32:59.165Z,9.50
2019-03-29T13:35:27.461Z,11.07
2019-03-29T13:37:58.554Z,11.23
2019-03-29T13:40:26.848Z,12.77
2019-03-29T13:42:55.114Z,12.30
2019-03-29T13:45:23.411Z,9.40
2019-03-29T13:47:51.674Z,9.77
2019-03-29T13:50:20.535Z,9.87
2019-03-29T13:52:50.495Z,11.87
2019-03-29T13:55:18.789Z,9.63
2019-03-29T13:57:47.124Z,11.13
2019-03-29T14:00:15.381Z,10.17
2019-03-29T14:02:43.772Z,12.13
2019-03-29T14:05:12.099Z,12.60
2019-03-29T14:07:40.405Z,8.87
2019-03-29T14:10:08.865Z,9.40
2019-03-29T14:12:37.851Z,11.00
2019-03-29T14:15:07.624Z,10.50
2019-03-29T14:17:35.936Z,10.07
2019-03-29T14:20:05.001Z,9.20
2019-03-29T14:22:33.432Z,8.83
2019-03-29T14:25:01.759Z,10.60
2019-03-29T14:27:30.088Z,12.23
2019-03-29T14:30:04.641Z,13.53
2019-03-29T14:32:28.379Z,8.50
2019-03-29T14:34:59.393Z,12.73
2019-03-29T14:37:27.684Z,12.07
2019-03-29T14:39:55.951Z,9.07
2019-03-29T14:42:24.201Z,9.80
2019-03-29T14:44:53.291Z,10.73
2019-03-29T14:47:21.848Z,9.37
2019-03-29T14:49:50.109Z,9.67
2019-03-29T14:52:18.369Z,10.03
2019-03-29T14:54:46.593Z,11.10
2019-03-29T14:57:14.821Z,9.13
2019-03-29T14:59:43.077Z,9.77
2019-03-29T15:02:11.368Z,11.70
2019-03-29T15:04:39.705Z,10.77
2019-03-29T15:07:07.988Z,9.57
2019-03-29T15:09:36.249Z,10.03
2019-03-29T15:12:06.893Z,10.40
2019-03-29T15:14:34.449Z,10.33
2019-03-29T15:17:02.753Z,10.73
2019-03-29T15:19:31.008Z,9.30
2019-03-29T15:21:59.309Z,11.90
2019-03-29T15:24:27.633Z,9.50
2019-03-29T15:26:55.924Z,9.30
2019-03-29T15:29:24.154Z,11.70
2019-03-29T15:31:52.477Z,8.47
2019-03-29T15:34:20.825Z,9.80
2019-03-29T15:36:49.162Z,11.50
2019-03-29T15:39:17.451Z,10.53
2019-03-29T15:41:45.711Z,13.20
2019-03-29T15:44:13.928Z,10.60
2019-03-29T15:46:42.160Z,10.47
2019-03-29T15:49:10.414Z,10.40
2019-03-29T15:51:38.635Z,11.43
2019-03-29T15:54:06.933Z,13.03
2019-03-29T15:56:35.262Z,11.53
2019-03-29T15:59:03.569Z,13.70
2019-03-29T16:01:31.829Z,10.70
2019-03-29T16:04:00.052Z,10.37
2019-03-29T16:06:28.387Z,12.13
2019-03-29T16:08:56.609Z,12.70
2019-03-29T16:11:24.913Z,13.43
2019-03-29T16:13:53.246Z,15.77
2019-03-29T16:16:21.472Z,13.13
2019-03-29T16:18:49.806Z,12.37
2019-03-29T16:21:20.704Z,12.03
2019-03-29T16:23:48.936Z,11.00
2019-03-29T16:26:17.187Z,11.67
2019-03-29T16:28:45.410Z,11.57
2019-03-29T16:31:13.717Z,13.10
2019-03-29T16:33:42.041Z,11.33
2019-03-29T16:36:10.591Z,11.57
2019-03-29T16:38:38.785Z,11.20
2019-03-29T16:41:07.013Z,11.23
2019-03-29T16:43:35.231Z,12.00
2019-03-29T16:46:03.570Z,11.70
2019-03-29T16:48:31.788Z,11.57
2019-03-29T16:51:00.116Z,12.43
2019-03-29T16:53:28.343Z,14.03
2019-03-29T16:55:56.685Z,12.53
2019-03-29T16:58:24.977Z,12.60
2019-03-29T17:00:53.268Z,13.87
2019-03-29T17:03:21.529Z,12.03
2019-03-29T17:05:49.829Z,10.67
2019-03-29T17:08:18.061Z,12.60
2019-03-29T17:10:46.317Z,11.80
2019-03-29T17:13:14.545Z,15.97
2019-03-29T17:15:42.865Z,14.97
2019-03-29T17:18:11.168Z,27.67
2019-03-29T17:20:39.425Z,16.83
2019-03-29T17:23:07.728Z,13.43
2019-03-29T17:25:36.016Z,13.70
2019-03-29T17:28:04.348Z,15.97
2019-03-29T17:30:40.663Z,13.00
2019-03-29T17:33:08.988Z,12.53
2019-03-29T17:35:37.284Z,15.53
2019-03-29T17:38:05.622Z,15.47
2019-03-29T17:40:33.925Z,13.70
2019-03-29T17:43:02.229Z,13.20
2019-03-29T17:45:30.488Z,16.93
2019-03-29T17:47:58.794Z,12.03
2019-03-29T17:50:27.128Z,17.27
2019-03-29T17:52:55.361Z,11.93
2019-03-29T17:55:23.648Z,16.17
2019-03-29T17:57:51.904Z,15.07
2019-03-29T18:00:27.289Z,15.67
2019-03-29T18:02:55.548Z,12.80
2019-03-29T18:05:23.789Z,12.03
2019-03-29T18:07:52.107Z,14.97
2019-03-29T18:10:20.401Z,12.40
2019-03-29T18:12:48.748Z,12.33
2019-03-29T18:15:17.079Z,15.73
2019-03-29T18:17:45.308Z,11.23
2019-03-29T18:20:14.032Z,13.00
2019-03-29T18:22:42.332Z,13.53
2019-03-29T18:25:10.629Z,15.63
2019-03-29T18:27:38.893Z,13.53
2019-03-29T18:30:11.451Z,19.87
2019-03-29T18:32:39.786Z,15.63
2019-03-29T18:35:08.568Z,15.97
2019-03-29T18:37:36.905Z,16.23
2019-03-29T18:40:05.701Z,15.10
2019-03-29T18:42:34.006Z,15.03
2019-03-29T18:45:02.330Z,15.37
2019-03-29T18:47:30.563Z,13.07
2019-03-29T18:49:58.887Z,15.37
2019-03-29T18:52:27.435Z,15.53
2019-03-29T18:54:55.761Z,17.57
2019-03-29T18:57:24.054Z,15.00
2019-03-29T18:59:52.313Z,15.50
2019-03-29T19:02:20.540Z,13.33
2019-03-29T19:04:48.841Z,15.07
2019-03-29T19:07:18.638Z,15.97
2019-03-29T19:09:47.160Z,14.17
2019-03-29T19:12:15.580Z,14.10
2019-03-29T19:14:43.789Z,17.53
2019-03-29T19:17:12.041Z,17.63
2019-03-29T19:19:40.344Z,16.47
2019-03-29T19:22:08.658Z,17.27
2019-03-29T19:24:36.910Z,16.80
2019-03-29T19:27:05.153Z,16.03
2019-03-29T19:29:33.465Z,19.23
2019-03-29T19:32:01.753Z,16.50
2019-03-29T19:34:30.081Z,18.40
2019-03-29T19:37:01.425Z,17.73
2019-03-29T19:39:28.364Z,16.83
2019-03-29T19:41:56.644Z,18.70
2019-03-29T19:44:25.084Z,17.50
2019-03-29T19:46:53.380Z,18.63
2019-03-29T19:49:21.647Z,19.20
2019-03-29T19:51:49.946Z,18.77
2019-03-29T19:54:18.297Z,16.90
2019-03-29T19:56:46.516Z,19.07
2019-03-29T19:59:14.859Z,21.07
2019-03-29T20:01:43.224Z,20.63
2019-03-29T20:04:11.681Z,17.37
2019-03-29T20:06:39.900Z,16.40
2019-03-29T20:09:08.835Z,17.77
2019-03-29T20:11:37.171Z,20.03
2019-03-29T20:14:05.602Z,16.27
2019-03-29T20:16:33.860Z,16.53
2019-03-29T20:19:02.157Z,17.00
2019-03-29T20:21:30.581Z,18.50
2019-03-29T20:23:58.881Z,18.27
2019-03-29T20:26:27.398Z,19.37
2019-03-29T20:28:55.653Z,17.10
2019-03-29T20:31:23.894Z,19.30
2019-03-29T20:33:52.248Z,19.23
2019-03-29T20:36:23.263Z,19.13
2019-03-29T20:38:50.908Z,19.17
2019-03-29T20:41:19.139Z,19.00
2019-03-29T20:43:47.458Z,21.07
2019-03-29T20:46:15.757Z,20.77
2019-03-29T20:48:44.063Z,17.10
2019-03-29T20:51:12.382Z,18.43
2019-03-29T20:53:43.542Z,19.83
2019-03-29T20:56:10.494Z,20.43
2019-03-29T20:58:38.825Z,25.00
2019-03-29T21:01:07.430Z,19.83
2019-03-29T21:03:35.761Z,19.73
2019-03-29T21:06:04.281Z,20.47
2019-03-29T21:08:32.530Z,18.57
2019-03-29T21:11:00.871Z,20.67
2019-03-29T21:13:29.164Z,20.63
2019-03-29T21:15:57.425Z,20.40
2019-03-29T21:18:25.685Z,19.77
2019-03-29T21:20:53.912Z,18.53
2019-03-29T21:23:22.220Z,20.57
2019-03-29T21:25:50.595Z,18.57
2019-03-29T21:28:19.437Z,20.53
2019-03-29T21:30:47.740Z,22.20
2019-03-29T21:33:16.040Z,19.27
2019-03-29T21:35:44.577Z,23.37
2019-03-29T21:38:12.876Z,18.97
2019-03-29T21:40:41.348Z,21.20
2019-03-29T21:43:10.115Z,19.20
2019-03-29T21:45:41.281Z,21.53
2019-03-29T21:48:27.498Z,22.63
2019-03-29T21:50:39.940Z,18.07
2019-03-29T21:53:08.196Z,19.67
2019-03-29T21:55:36.425Z,18.27
2019-03-29T21:58:04.761Z,23.43
2019-03-29T22:00:32.993Z,20.57
2019-03-29T22:03:01.256Z,20.03
2019-03-29T22:05:29.675Z,20.53
2019-03-29T22:07:57.934Z,25.20
2019-03-29T22:10:26.195Z,22.47
2019-03-29T22:12:54.595Z,21.03
2019-03-29T22:15:23.262Z,24.20
2019-03-29T22:17:51.585Z,20.70
2019-03-29T22:20:19.807Z,21.20
2019-03-29T22:22:48.697Z,20.37
2019-03-29T22:25:17.689Z,20.43
2019-03-29T22:27:46.007Z,23.23
2019-03-29T22:30:15.820Z,25.37
2019-03-29T22:32:44.040Z,18.77
2019-03-29T22:35:12.371Z,21.43
2019-03-29T22:37:40.601Z,22.23
2019-03-29T22:40:09.937Z,20.50
2019-03-29T22:42:38.161Z,20.37
2019-03-29T22:45:09.813Z,20.13
2019-03-29T22:47:38.037Z,22.90
2019-03-29T22:50:06.487Z,24.60
2019-03-29T22:52:34.769Z,20.90
2019-03-29T22:55:03.896Z,22.57
2019-03-29T22:57:32.206Z,24.53
2019-03-29T23:00:00.535Z,22.03
2019-03-29T23:02:29.104Z,22.83
2019-03-29T23:04:57.379Z,23.17
2019-03-29T23:07:25.631Z,28.27
2019-03-29T23:09:53.960Z,26.93
2019-03-29T23:12:22.194Z,25.80
2019-03-29T23:14:50.429Z,24.27
2019-03-29T23:17:18.691Z,23.33
2019-03-29T23:19:47.289Z,25.33
2019-03-29T23:22:15.541Z,25.53
2019-03-29T23:24:43.786Z,24.60
2019-03-29T23:27:12.068Z,25.53
2019-03-29T23:29:40.307Z,23.77
2019-03-29T23:32:08.632Z,26.63
2019-03-29T23:34:36.861Z,25.20
2019-03-29T23:37:05.138Z,26.73
2019-03-29T23:39:33.368Z,24.20
2019-03-29T23:42:01.688Z,25.67
2019-03-29T23:44:29.924Z,27.33
2019-03-29T23:47:00.953Z,26.80
2019-03-29T23:49:29.168Z,25.90
2019-03-29T23:51:57.396Z,25.47
2019-03-29T23:54:25.669Z,27.00
2019-03-29T23:56:53.897Z,28.47
2019-03-29T23:59:22.156Z,26.07
